Terminal Aerodrome Forecast
Issued by NWS

Home | Current Version | Previous Version | Text Only | Print | Product List | Glossary On
Versions: 1 2 3 4 5 6 7 8 9 10 11 12 13
792
FTUS44 KEPZ 231720
TAFDMN
TAF
KDMN 231720Z 2318/2418 22007KT P6SM FEW250
     FM240300 28006KT P6SM FEW250=

USA.gov is the U.S. government's official web portal to all federal, state and local government web resources and services.